Time;durP1;ratioP1;P1;durP2;ratioP2;P2;SDS_P1;SDS_P2;PMS_P1;PMS_P2;Temp;Humidity;BMP_temperature;BMP_pressure;BME280_temperature;BME280_humidity;BME280_pressure;Samples;Min_cycle;Max_cycle;Signal;HPM_P1;HPM_P2
2022/10/14 00:00:17;;;;;;;1999.90;999.90;;;16.80;99.90;;;;;;5051516;28;20144;-81
2022/10/14 00:02:42;;;;;;;1999.90;999.90;;;16.80;99.90;;;;;;5052895;28;20104;-81
2022/10/14 00:05:08;;;;;;;1999.90;999.90;;;16.80;99.90;;;;;;5055005;28;20403;-81
2022/10/14 00:07:37;;;;;;;1999.90;999.90;;;16.80;99.90;;;;;;5055277;28;20103;-81
2022/10/14 00:10:05;;;;;;;1999.90;999.90;;;16.80;99.90;;;;;;5054931;28;20020;-81
2022/10/14 00:12:31;;;;;;;1999.90;999.90;;;16.80;99.90;;;;;;5037344;28;20030;-81
2022/10/14 00:14:57;;;;;;;1999.90;999.90;;;16.80;99.90;;;;;;5035068;28;20053;-81
2022/10/14 00:17:23;;;;;;;1999.90;999.90;;;16.80;99.90;;;;;;5017262;28;20034;-81
2022/10/14 00:19:49;;;;;;;1999.90;999.90;;;16.80;99.90;;;;;;5034391;28;20022;-81
2022/10/14 00:22:14;;;;;;;1999.90;999.90;;;16.80;99.90;;;;;;5016820;28;20033;-81
2022/10/14 00:24:40;;;;;;;1999.90;999.90;;;16.80;99.90;;;;;;5016850;28;20022;-81
2022/10/14 00:27:06;;;;;;;1999.90;999.90;;;16.80;99.90;;;;;;5034741;28;20033;-81
2022/10/14 00:29:31;;;;;;;1999.90;999.90;;;16.80;99.90;;;;;;5051700;28;20451;-81
2022/10/14 00:31:57;;;;;;;1999.90;999.90;;;16.80;99.90;;;;;;5054508;28;20036;-81
2022/10/14 00:34:23;;;;;;;1999.90;999.90;;;16.80;99.90;;;;;;5036246;28;20041;-80
2022/10/14 00:36:49;;;;;;;1999.90;999.90;;;16.80;99.90;;;;;;5054381;28;20550;-81
2022/10/14 00:39:15;;;;;;;1999.90;999.90;;;16.80;99.90;;;;;;5054434;28;20053;-81
2022/10/14 00:41:41;;;;;;;1999.90;999.90;;;16.80;99.90;;;;;;5054545;28;20092;-81
2022/10/14 00:44:09;;;;;;;1999.90;999.90;;;16.80;99.90;;;;;;5054279;28;20041;-81
2022/10/14 00:46:43;;;;;;;1999.90;999.90;;;16.80;99.90;;;;;;5054072;28;20373;-81
2022/10/14 00:49:22;;;;;;;1999.90;999.90;;;16.80;99.90;;;;;;5035975;28;20048;-81
2022/10/14 00:51:51;;;;;;;1999.90;999.90;;;16.80;99.90;;;;;;5054165;28;20514;-80
2022/10/14 00:54:19;;;;;;;1999.90;999.90;;;16.90;99.90;;;;;;5054243;28;20491;-81
2022/10/14 00:56:47;;;;;;;1999.90;999.90;;;16.80;99.90;;;;;;5053682;28;20029;-81
2022/10/14 00:59:13;;;;;;;1999.90;999.90;;;16.80;99.90;;;;;;5054223;28;20423;-81
2022/10/14 01:01:39;;;;;;;1999.90;999.90;;;16.80;99.90;;;;;;5054079;28;20029;-81
2022/10/14 01:04:04;;;;;;;1999.90;999.90;;;16.80;99.90;;;;;;5053786;28;20021;-81
2022/10/14 01:06:49;;;;;;;1999.90;999.90;;;16.90;99.90;;;;;;5053616;28;20104;-81
2022/10/14 01:09:47;;;;;;;1999.90;999.90;;;16.80;99.90;;;;;;5054022;28;20025;-81
2022/10/14 01:12:24;;;;;;;1999.90;999.90;;;16.80;99.90;;;;;;5050559;28;20789;-81
2022/10/14 01:15:10;;;;;;;1999.90;999.90;;;16.80;99.90;;;;;;5032832;28;20029;-81
2022/10/14 01:18:03;;;;;;;1999.90;999.90;;;16.80;99.90;;;;;;5032554;28;20029;-81
2022/10/14 01:20:46;;;;;;;1999.90;999.90;;;16.80;99.90;;;;;;5033166;28;20107;-81
2022/10/14 01:23:48;;;;;;;1999.90;999.90;;;16.80;99.90;;;;;;5033827;28;20097;-80
2022/10/14 01:26:32;;;;;;;1999.90;999.90;;;16.80;99.90;;;;;;5032384;28;20068;-80
2022/10/14 01:29:00;;;;;;;1999.90;999.90;;;16.80;99.90;;;;;;5048247;28;20021;-81
2022/10/14 01:31:31;;;;;;;1999.90;999.90;;;16.80;99.90;;;;;;5053746;28;20056;-81
2022/10/14 01:34:01;;;;;;;1999.90;999.90;;;16.80;99.90;;;;;;5053792;28;20028;-81
2022/10/14 01:36:41;;;;;;;1999.90;999.90;;;16.80;99.90;;;;;;5053118;28;20033;-81
2022/10/14 01:39:19;;;;;;;1999.90;999.90;;;16.80;99.90;;;;;;5052972;28;20040;-81
2022/10/14 01:41:57;;;;;;;1999.90;999.90;;;16.80;99.90;;;;;;5053400;28;20025;-81
2022/10/14 01:44:24;;;;;;;1999.90;999.90;;;16.80;99.90;;;;;;5053197;28;20021;-81
2022/10/14 01:46:54;;;;;;;1999.90;999.90;;;16.80;99.90;;;;;;5052946;28;20029;-81
2022/10/14 01:49:28;;;;;;;1999.90;999.90;;;16.80;99.90;;;;;;5053101;28;20055;-81
2022/10/14 01:51:59;;;;;;;1999.90;999.90;;;16.80;99.90;;;;;;5053275;28;20047;-80
2022/10/14 01:54:32;;;;;;;1999.90;999.90;;;16.80;99.90;;;;;;5053068;28;20054;-81
2022/10/14 01:57:02;;;;;;;1999.90;999.90;;;16.80;99.90;;;;;;5052670;28;20032;-81
2022/10/14 01:59:30;;;;;;;1999.90;999.90;;;16.80;99.90;;;;;;5053325;28;20088;-81
2022/10/14 02:01:56;;;;;;;1999.90;999.90;;;16.80;99.90;;;;;;5053663;22;20074;-87
2022/10/14 02:04:22;;;;;;;1999.90;999.90;;;16.80;99.90;;;;;;4992728;28;20084;-86
2022/10/14 02:06:56;;;;;;;1999.90;999.90;;;16.80;99.90;;;;;;4993240;28;20029;-87
2022/10/14 02:09:28;;;;;;;1999.90;999.90;;;16.80;99.90;;;;;;4993827;28;20048;-75
2022/10/14 02:12:21;;;;;;;1999.90;999.90;;;16.80;99.90;;;;;;4992571;28;20022;-82
2022/10/14 02:14:54;;;;;;;1999.90;999.90;;;16.70;99.90;;;;;;4943626;28;20027;-84
2022/10/14 02:17:25;;;;;;;1999.90;999.90;;;16.70;99.90;;;;;;4972733;28;20041;-84
2022/10/14 02:20:03;;;;;;;1999.90;999.90;;;16.70;99.90;;;;;;4972276;28;20026;-85
2022/10/14 02:22:31;;;;;;;1999.90;999.90;;;16.70;99.90;;;;;;4973793;28;20034;-77
2022/10/14 02:25:02;;;;;;;1999.90;999.90;;;16.80;99.90;;;;;;4971751;28;20518;-77
2022/10/14 02:27:31;;;;;;;1999.90;999.90;;;16.70;99.90;;;;;;4973942;28;20494;-84
2022/10/14 02:29:59;;;;;;;1999.90;999.90;;;16.70;99.90;;;;;;4973350;28;20023;-76
2022/10/14 02:32:27;;;;;;;1999.90;999.90;;;16.70;99.90;;;;;;4973654;28;20018;-82
2022/10/14 02:34:55;;;;;;;1999.90;999.90;;;16.80;99.90;;;;;;4973587;28;20534;-82
2022/10/14 02:37:22;;;;;;;1999.90;999.90;;;16.70;99.90;;;;;;4973911;28;20037;-83
2022/10/14 02:39:56;;;;;;;1999.90;999.90;;;16.80;99.90;;;;;;4973242;28;20043;-83
2022/10/14 02:42:21;;;;;;;1999.90;999.90;;;16.70;99.90;;;;;;4973535;28;20513;-83
2022/10/14 02:44:59;;;;;;;1999.90;999.90;;;16.70;99.90;;;;;;4973457;28;20035;-77
2022/10/14 02:47:25;;;;;;;1999.90;999.90;;;16.70;99.90;;;;;;4972694;28;20433;-84
2022/10/14 02:49:51;;;;;;;1999.90;999.90;;;16.80;99.90;;;;;;4973409;28;20027;-84
2022/10/14 02:52:17;;;;;;;1999.90;999.90;;;16.80;99.90;;;;;;4973471;28;20387;-84
2022/10/14 02:54:43;;;;;;;1999.90;999.90;;;16.80;99.90;;;;;;4973593;28;20502;-83
2022/10/14 02:57:08;;;;;;;1999.90;999.90;;;16.80;99.90;;;;;;4971780;28;20037;-82
2022/10/14 02:59:34;;;;;;;1999.90;999.90;;;16.90;99.90;;;;;;4973639;28;20027;-76
2022/10/14 03:02:00;;;;;;;1999.90;999.90;;;16.80;99.90;;;;;;4973115;28;20054;-76
2022/10/14 03:04:25;;;;;;;1999.90;999.90;;;16.80;99.90;;;;;;4973101;28;20108;-77
2022/10/14 03:06:52;;;;;;;1999.90;999.90;;;16.80;99.90;;;;;;4973523;28;20106;-83
2022/10/14 03:09:18;;;;;;;1999.90;999.90;;;16.80;99.90;;;;;;4992973;28;20019;-84
2022/10/14 03:11:44;;;;;;;1999.90;999.90;;;16.80;99.90;;;;;;4992758;28;20027;-85
2022/10/14 03:14:10;;;;;;;1999.90;999.90;;;16.80;99.90;;;;;;4955136;28;20048;-77
2022/10/14 03:16:35;;;;;;;1999.90;999.90;;;16.80;99.90;;;;;;4952057;29;20089;-77
2022/10/14 03:19:01;;;;;;;1999.90;999.90;;;16.80;99.90;;;;;;4954083;29;20031;-77
2022/10/14 03:21:27;;;;;;;1999.90;999.90;;;16.80;99.90;;;;;;4952326;29;20030;-86
2022/10/14 03:23:52;;;;;;;1999.90;999.90;;;16.80;99.90;;;;;;4954053;29;20443;-88
2022/10/14 03:26:18;;;;;;;1999.90;999.90;;;16.90;99.90;;;;;;4954092;29;20059;-77
2022/10/14 03:28:44;;;;;;;1999.90;999.90;;;16.90;99.90;;;;;;4963998;28;20158;-89
2022/10/14 03:31:10;;;;;;;1999.90;999.90;;;16.90;99.90;;;;;;4971852;28;20129;-88
2022/10/14 03:33:35;;;;;;;1999.90;999.90;;;16.90;99.90;;;;;;4971990;28;20034;-89
2022/10/14 03:36:01;;;;;;;1999.90;999.90;;;16.90;99.90;;;;;;4973625;28;20037;-88
2022/10/14 03:38:27;;;;;;;1999.90;999.90;;;16.90;99.90;;;;;;4976575;28;20058;-87
2022/10/14 03:40:53;;;;;;;1999.90;999.90;;;16.90;99.90;;;;;;4959489;28;20478;-77
2022/10/14 03:43:18;;;;;;;1999.90;999.90;;;16.90;99.90;;;;;;4977088;28;20520;-87
2022/10/14 03:45:44;;;;;;;1999.90;999.90;;;16.90;99.90;;;;;;4977159;28;20074;-86
2022/10/14 03:48:10;;;;;;;1999.90;999.90;;;16.90;99.90;;;;;;4959404;28;20061;-86
2022/10/14 03:50:35;;;;;;;1999.90;999.90;;;16.90;99.90;;;;;;4976556;28;20066;-87
2022/10/14 03:53:01;;;;;;;1999.90;999.90;;;16.90;99.90;;;;;;4976744;28;20077;-86
2022/10/14 03:55:27;;;;;;;1999.90;999.90;;;17.00;99.90;;;;;;4976942;28;20035;-86
2022/10/14 03:57:53;;;;;;;1999.90;999.90;;;16.90;99.90;;;;;;4959342;28;20031;-86
2022/10/14 04:00:18;;;;;;;1999.90;999.90;;;17.00;99.90;;;;;;4976542;28;20073;-85
2022/10/14 04:02:44;;;;;;;1999.90;999.90;;;17.00;99.90;;;;;;4982399;28;20180;-86
2022/10/14 04:05:10;;;;;;;1999.90;999.90;;;17.00;99.90;;;;;;4962801;28;20030;-77
2022/10/14 04:07:36;;;;;;;1999.90;999.90;;;17.00;99.90;;;;;;4990647;28;20521;-77
2022/10/14 04:10:02;;;;;;;1999.90;999.90;;;17.00;99.90;;;;;;4995882;28;20370;-85
2022/10/14 04:12:27;;;;;;;1999.90;999.90;;;17.00;99.90;;;;;;4985880;28;20077;-86
2022/10/14 04:14:55;;;;;;;1999.90;999.90;;;17.00;99.90;;;;;;4954438;29;20494;-86
2022/10/14 04:17:22;;;;;;;1999.90;999.90;;;17.00;99.90;;;;;;4955755;29;20123;-77
2022/10/14 04:19:48;;;;;;;1999.90;999.90;;;17.00;99.90;;;;;;4939244;29;20027;-77
2022/10/14 04:22:13;;;;;;;1999.90;999.90;;;17.00;99.90;;;;;;4957264;29;20029;-76
2022/10/14 04:24:39;;;;;;;1999.90;999.90;;;17.00;99.90;;;;;;4955549;29;20034;-86
2022/10/14 04:27:05;;;;;;;1999.90;999.90;;;17.00;99.90;;;;;;4956580;29;20453;-77
2022/10/14 04:29:30;;;;;;;1999.90;999.90;;;17.10;99.90;;;;;;4973979;28;20093;-85
2022/10/14 04:31:56;;;;;;;1999.90;999.90;;;17.10;99.90;;;;;;4975599;28;20023;-76
2022/10/14 04:34:21;;;;;;;1999.90;999.90;;;17.10;99.90;;;;;;4975651;28;20027;-86
2022/10/14 04:36:47;;;;;;;1999.90;999.90;;;17.10;99.90;;;;;;4975945;28;20026;-86
2022/10/14 04:39:14;;;;;;;1999.90;999.90;;;17.10;99.90;;;;;;4976710;28;20524;-86
2022/10/14 04:41:40;;;;;;;1999.90;999.90;;;17.10;99.90;;;;;;4976150;28;20077;-77
2022/10/14 04:44:06;;;;;;;1999.90;999.90;;;17.10;99.90;;;;;;4976086;28;20478;-77
2022/10/14 04:46:31;;;;;;;1999.90;999.90;;;17.10;99.90;;;;;;4977277;28;20039;-86
2022/10/14 04:48:57;;;;;;;1999.90;999.90;;;17.20;99.90;;;;;;4974848;28;20576;-86
2022/10/14 04:51:23;;;;;;;1999.90;999.90;;;17.10;99.90;;;;;;4976048;28;20417;-86
2022/10/14 04:53:48;;;;;;;1999.90;999.90;;;17.20;99.90;;;;;;4974528;28;20038;-88
2022/10/14 04:56:14;;;;;;;1999.90;999.90;;;17.20;99.90;;;;;;4975256;28;20030;-77
2022/10/14 04:58:40;;;;;;;1999.90;999.90;;;17.20;99.90;;;;;;4957728;28;20027;-77
2022/10/14 05:01:05;;;;;;;1999.90;999.90;;;17.20;99.90;;;;;;4975476;28;20093;-78
2022/10/14 05:03:31;;;;;;;1999.90;999.90;;;17.20;99.90;;;;;;4975070;28;20051;-87
2022/10/14 05:05:57;;;;;;;1999.90;999.90;;;17.20;99.90;;;;;;4975296;28;20395;-77
2022/10/14 05:08:23;;;;;;;1999.90;999.90;;;17.30;99.90;;;;;;4975135;28;20035;-88
2022/10/14 05:10:49;;;;;;;1999.90;999.90;;;17.30;99.90;;;;;;4975265;28;20041;-87
2022/10/14 05:13:15;;;;;;;1999.90;999.90;;;17.30;99.90;;;;;;4964344;28;20035;-86
2022/10/14 05:15:41;;;;;;;1999.90;999.90;;;17.30;99.90;;;;;;4938496;29;20027;-87
2022/10/14 05:18:12;;;;;;;1999.90;999.90;;;17.30;99.90;;;;;;4955314;29;20035;-87
2022/10/14 05:20:38;;;;;;;1999.90;999.90;;;17.40;99.90;;;;;;4955315;29;20020;-87
2022/10/14 05:23:05;;;;;;;1999.90;999.90;;;17.40;99.90;;;;;;4955657;29;20034;-77
2022/10/14 05:25:30;;;;;;;1999.90;999.90;;;17.40;99.90;;;;;;4955521;29;20106;-87
2022/10/14 05:27:56;;;;;;;1999.90;999.90;;;17.40;99.90;;;;;;4955681;29;20162;-87
2022/10/14 05:30:21;;;;;;;1999.90;999.90;;;17.40;99.90;;;;;;4955241;29;20510;-78
2022/10/14 05:32:47;;;;;;;1999.90;999.90;;;17.30;99.90;;;;;;4955177;29;20447;-88
2022/10/14 05:35:13;;;;;;;1999.90;999.90;;;17.40;99.90;;;;;;4955592;28;20035;-87
2022/10/14 05:37:38;;;;;;;1999.90;999.90;;;17.40;99.90;;;;;;4974516;28;20063;-78
2022/10/14 05:40:04;;;;;;;1999.90;999.90;;;17.40;99.90;;;;;;4974429;28;20019;-89
2022/10/14 05:42:30;;;;;;;1999.90;999.90;;;17.40;99.90;;;;;;4974769;28;20101;-88
2022/10/14 05:44:56;;;;;;;1999.90;999.90;;;17.40;99.90;;;;;;4974242;28;20178;-77
2022/10/14 05:47:21;;;;;;;1999.90;999.90;;;17.40;99.90;;;;;;4970936;28;20045;-88
2022/10/14 05:49:47;;;;;;;1999.90;999.90;;;17.40;99.90;;;;;;4980242;28;20390;-77
2022/10/14 05:52:12;;;;;;;1999.90;999.90;;;17.40;99.90;;;;;;4989260;28;20031;-88
2022/10/14 05:54:38;;;;;;;1999.90;999.90;;;17.50;99.90;;;;;;4973535;28;20034;-87
2022/10/14 05:57:04;;;;;;;1999.90;999.90;;;17.50;99.90;;;;;;4974483;28;20034;-86
2022/10/14 05:59:30;;;;;;;1999.90;999.90;;;17.50;99.90;;;;;;4973957;28;20027;-88
2022/10/14 06:01:56;;;;;;;1999.90;999.90;;;17.50;99.90;;;;;;4973555;28;20537;-78
2022/10/14 06:04:21;;;;;;;1999.90;999.90;;;17.50;99.90;;;;;;4973851;28;20054;-78
2022/10/14 06:06:47;;;;;;;1999.90;999.90;;;17.50;99.90;;;;;;4973311;28;20061;-88
2022/10/14 06:09:13;;;;;;;1999.90;999.90;;;17.50;99.90;;;;;;4969262;28;20047;-88
2022/10/14 06:11:39;;;;;;;1999.90;999.90;;;17.50;99.90;;;;;;4971953;28;20026;-88
2022/10/14 06:14:05;;;;;;;1999.90;999.90;;;17.50;99.90;;;;;;4972340;28;20082;-89
2022/10/14 06:16:30;;;;;;;1999.90;999.90;;;17.50;99.90;;;;;;4977593;28;20425;-80
2022/10/14 06:18:56;;;;;;;1999.90;999.90;;;17.50;99.90;;;;;;4970462;28;20494;-77
2022/10/14 06:21:22;;;;;;;1999.90;999.90;;;17.50;99.90;;;;;;4975355;28;20019;-91
2022/10/14 06:23:48;;;;;;;1999.90;999.90;;;17.50;99.90;;;;;;4980846;28;20035;-89
2022/10/14 06:26:14;;;;;;;1999.90;999.90;;;17.50;99.90;;;;;;4971640;28;20045;-88
2022/10/14 06:28:39;;;;;;;1999.90;999.90;;;17.40;99.90;;;;;;4970603;28;20034;-77
2022/10/14 06:31:05;;;;;;;1999.90;999.90;;;17.50;99.90;;;;;;4970078;28;20030;-79
2022/10/14 06:33:31;;;;;;;1999.90;999.90;;;17.50;99.90;;;;;;4973613;28;20086;-86
2022/10/14 06:35:57;;;;;;;1999.90;999.90;;;17.50;99.90;;;;;;4973415;28;20030;-89
2022/10/14 06:38:23;;;;;;;1999.90;999.90;;;17.50;99.90;;;;;;4971879;28;20620;-77
2022/10/14 06:40:53;;;;;;;1999.90;999.90;;;17.50;99.90;;;;;;4971261;28;20402;-78
2022/10/14 06:43:20;;;;;;;1999.90;999.90;;;17.50;99.90;;;;;;4972528;28;20035;-87
2022/10/14 06:45:46;;;;;;;1999.90;999.90;;;17.60;99.90;;;;;;4973635;28;20051;-90
2022/10/14 06:48:12;;;;;;;1999.90;999.90;;;17.60;99.90;;;;;;4972002;28;20039;-89
2022/10/14 06:50:38;;;;;;;1999.90;999.90;;;17.60;99.90;;;;;;4974284;28;20448;-86
2022/10/14 06:53:03;;;;;;;1999.90;999.90;;;17.60;99.90;;;;;;4971123;28;20035;-91
2022/10/14 06:55:29;;;;;;;1999.90;999.90;;;17.70;99.90;;;;;;4972211;28;20057;-82
2022/10/14 06:57:54;;;;;;;1999.90;999.90;;;17.70;99.90;;;;;;4975724;28;20027;-86
2022/10/14 07:00:20;;;;;;;1999.90;999.90;;;17.70;99.90;;;;;;4969572;28;20550;-91
2022/10/14 07:02:46;;;;;;;1999.90;999.90;;;17.70;99.90;;;;;;4971812;28;20043;-88
2022/10/14 07:05:12;;;;;;;1999.90;999.90;;;17.70;99.90;;;;;;4955816;28;20026;-87
2022/10/14 07:07:38;;;;;;;1999.90;999.90;;;17.70;99.90;;;;;;4975699;28;20039;-80
2022/10/14 07:10:04;;;;;;;1999.90;999.90;;;17.70;99.90;;;;;;4968642;28;20036;-79
2022/10/14 07:12:30;;;;;;;1999.90;999.90;;;17.70;99.90;;;;;;4981978;28;20025;-86
2022/10/14 07:14:55;;;;;;;1999.90;999.90;;;17.70;99.90;;;;;;4975430;28;20035;-81
2022/10/14 07:17:21;;;;;;;1999.90;999.90;;;17.70;99.90;;;;;;4977959;28;20095;-80
2022/10/14 07:19:47;;;;;;;1999.90;999.90;;;17.70;99.90;;;;;;4975886;28;20019;-80
2022/10/14 07:22:12;;;;;;;1999.90;999.90;;;17.70;99.90;;;;;;4976759;28;20029;-80
2022/10/14 07:24:38;;;;;;;1999.90;999.90;;;17.70;99.90;;;;;;4977011;28;20022;-85
2022/10/14 07:27:04;;;;;;;1999.90;999.90;;;17.70;99.90;;;;;;4978626;28;20027;-86
2022/10/14 07:29:30;;;;;;;1999.90;999.90;;;17.70;99.90;;;;;;4976533;28;20033;-86
2022/10/14 07:31:55;;;;;;;1999.90;999.90;;;17.70;99.90;;;;;;4987515;28;20134;-88
2022/10/14 07:34:21;;;;;;;1999.90;999.90;;;17.70;99.90;;;;;;4977706;28;20034;-86
2022/10/14 07:36:46;;;;;;;1999.90;999.90;;;17.70;99.90;;;;;;4976214;28;20109;-87
2022/10/14 07:39:12;;;;;;;1999.90;999.90;;;17.70;99.90;;;;;;4976393;28;20026;-81
2022/10/14 07:41:38;;;;;;;1999.90;999.90;;;17.70;99.90;;;;;;4976408;28;20033;-85
2022/10/14 07:44:08;;;;;;;1999.90;999.90;;;17.80;99.90;;;;;;4978513;28;20535;-88
2022/10/14 07:46:37;;;;;;;1999.90;999.90;;;17.70;99.90;;;;;;4975472;28;20119;-86
2022/10/14 07:49:11;;;;;;;1999.90;999.90;;;17.70;99.90;;;;;;4981664;28;20027;-79
2022/10/14 07:51:38;;;;;;;1999.90;999.90;;;17.80;99.90;;;;;;4977611;28;20031;-79
2022/10/14 07:54:09;;;;;;;1999.90;999.90;;;17.80;99.90;;;;;;4976557;28;20066;-85
2022/10/14 07:56:37;;;;;;;1999.90;999.90;;;17.80;99.90;;;;;;4976405;28;20474;-83
2022/10/14 07:59:03;;;;;;;1999.90;999.90;;;17.90;99.90;;;;;;4975011;28;20494;-78
2022/10/14 08:01:29;;;;;;;1999.90;999.90;;;17.90;99.90;;;;;;4985673;28;20034;-81
2022/10/14 08:03:54;;;;;;;1999.90;999.90;;;17.90;99.90;;;;;;4978078;28;20031;-85
2022/10/14 08:06:20;;;;;;;1999.90;999.90;;;18.00;99.90;;;;;;4976249;28;20075;-85
2022/10/14 08:08:46;;;;;;;1999.90;999.90;;;18.00;99.90;;;;;;4961434;28;20019;-82
2022/10/14 08:11:14;;;;;;;1999.90;999.90;;;18.00;99.90;;;;;;4978963;28;20034;-84
2022/10/14 08:13:39;;;;;;;1999.90;999.90;;;18.10;99.90;;;;;;4981420;28;20110;-85
2022/10/14 08:16:19;;;;;;;1999.90;999.90;;;18.10;99.90;;;;;;4984227;28;20097;-78
2022/10/14 08:18:46;;;;;;;1999.90;999.90;;;18.20;99.90;;;;;;4957235;28;20054;-85
2022/10/14 08:21:12;;;;;;;1999.90;999.90;;;18.20;99.90;;;;;;4977234;28;20576;-81
2022/10/14 08:23:38;;;;;;;1999.90;999.90;;;18.30;99.90;;;;;;4976209;28;20022;-87
2022/10/14 08:26:04;;;;;;;1999.90;999.90;;;18.20;99.90;;;;;;4972767;28;20512;-88
2022/10/14 08:28:30;;;;;;;1999.90;999.90;;;18.20;99.90;;;;;;4977316;28;20035;-83
2022/10/14 08:30:56;;;;;;;1999.90;999.90;;;18.30;99.90;;;;;;4960120;28;20469;-87
2022/10/14 08:33:21;;;;;;;1999.90;999.90;;;18.30;99.90;;;;;;4978489;28;20509;-85
2022/10/14 08:35:47;;;;;;;1999.90;999.90;;;18.30;99.90;;;;;;4975317;28;20058;-85
2022/10/14 08:38:12;;;;;;;1999.90;999.90;;;18.30;99.90;;;;;;4974763;28;20035;-80
2022/10/14 08:41:13;;;;;;;1999.90;999.90;;;18.40;99.90;;;;;;4973278;28;20057;-79
2022/10/14 08:44:14;;;;;;;1999.90;999.90;;;18.40;99.90;;;;;;4910466;28;20121;-84
2022/10/14 08:46:44;;;;;;;1999.90;999.90;;;18.40;99.90;;;;;;4910972;28;20530;-85
2022/10/14 08:49:15;;;;;;;1999.90;999.90;;;18.50;99.90;;;;;;4976282;28;20035;-84
2022/10/14 08:51:45;;;;;;;1999.90;999.90;;;18.50;99.90;;;;;;4974003;28;20027;-80
2022/10/14 08:54:17;;;;;;;1999.90;999.90;;;18.40;99.90;;;;;;4974440;28;20113;-82
2022/10/14 08:56:43;;;;;;;1999.90;999.90;;;18.40;99.90;;;;;;4962032;28;20023;-85
2022/10/14 08:59:14;;;;;;;1999.90;999.90;;;18.50;99.90;;;;;;4973342;28;20465;-82
2022/10/14 09:01:53;;;;;;;1999.90;999.90;;;18.60;99.90;;;;;;4988770;28;20030;-84
2022/10/14 09:04:20;;;;;;;1999.90;999.90;;;18.60;99.90;;;;;;4976715;28;20394;-79
2022/10/14 09:06:47;;;;;;;1999.90;999.90;;;18.70;99.90;;;;;;4982109;28;20045;-78
2022/10/14 09:09:21;;;;;;;1999.90;999.90;;;18.70;99.90;;;;;;4993147;28;20058;-85
2022/10/14 09:12:14;;;;;;;1999.90;999.90;;;18.70;99.90;;;;;;4984911;28;20035;-80
2022/10/14 09:14:46;;;;;;;1999.90;999.90;;;18.70;99.90;;;;;;4957664;28;20561;-86
2022/10/14 09:17:20;;;;;;;1999.90;999.90;;;18.70;99.90;;;;;;4978943;28;20093;-79
2022/10/14 09:19:50;;;;;;;1999.90;999.90;;;18.90;99.90;;;;;;4971192;28;20545;-80
2022/10/14 09:22:16;;;;;;;1999.90;999.90;;;19.10;99.90;;;;;;4971839;28;20031;-87
2022/10/14 09:24:47;;;;;;;1999.90;999.90;;;19.10;99.90;;;;;;4981089;28;20081;-85
2022/10/14 09:27:16;;;;;;;1999.90;999.90;;;19.30;99.90;;;;;;4973636;28;20422;-85
2022/10/14 09:30:08;;;;;;;1999.90;999.90;;;19.30;99.90;;;;;;4974917;28;20030;-79
2022/10/14 09:32:43;;;;;;;1999.90;999.90;;;19.40;99.90;;;;;;4974284;28;20026;-79
2022/10/14 09:35:39;;;;;;;1999.90;999.90;;;19.30;99.90;;;;;;4976119;28;20049;-79
2022/10/14 09:38:06;;;;;;;1999.90;999.90;;;19.20;99.90;;;;;;4970658;28;20038;-81
2022/10/14 09:40:43;;;;;;;1999.90;999.90;;;19.20;99.90;;;;;;4975405;28;20046;-83
2022/10/14 09:43:09;;;;;;;1999.90;999.90;;;19.10;99.90;;;;;;4972925;28;20498;-76
2022/10/14 09:45:59;;;;;;;1999.90;999.90;;;19.00;99.90;;;;;;4974135;28;20031;-80
2022/10/14 09:48:45;;;;;;;1999.90;999.90;;;19.00;99.90;;;;;;4949731;29;20118;-85
2022/10/14 09:51:25;;;;;;;1999.90;999.90;;;19.00;99.90;;;;;;4957304;28;20173;-83
2022/10/14 09:53:54;;;;;;;1999.90;999.90;;;19.10;99.90;;;;;;4973582;28;20502;-79
2022/10/14 09:56:35;;;;;;;1999.90;999.90;;;19.10;99.90;;;;;;4973804;28;20449;-77
2022/10/14 09:59:03;;;;;;;1999.90;999.90;;;19.20;99.90;;;;;;4972971;28;20031;-80
2022/10/14 10:01:41;;;;;;;1999.90;999.90;;;19.20;99.90;;;;;;4971893;28;20073;-84
2022/10/14 10:04:29;;;;;;;1999.90;999.90;;;19.30;99.90;;;;;;4955044;28;20486;-84
2022/10/14 10:06:56;;;;;;;1999.90;999.90;;;19.40;99.90;;;;;;4955632;28;20040;-84
2022/10/14 10:09:22;;;;;;;1999.90;999.90;;;19.40;99.90;;;;;;4962622;28;20034;-80
2022/10/14 10:11:48;;;;;;;1999.90;999.90;;;19.40;99.90;;;;;;4989899;28;20088;-78
2022/10/14 10:14:22;;;;;;;1999.90;999.90;;;19.40;99.90;;;;;;4970688;28;20442;-86
2022/10/14 10:16:50;;;;;;;1999.90;999.90;;;19.40;99.90;;;;;;4972425;28;20042;-84
2022/10/14 10:19:20;;;;;;;1999.90;999.90;;;19.40;99.90;;;;;;4960039;28;20031;-85
2022/10/14 10:21:46;;;;;;;1999.90;999.90;;;19.40;99.90;;;;;;4963756;28;20027;-77
2022/10/14 10:24:21;;;;;;;1999.90;999.90;;;19.20;99.90;;;;;;4943612;28;20031;-80
2022/10/14 10:26:47;;;;;;;1999.90;999.90;;;19.40;99.90;;;;;;4966042;28;20031;-78
2022/10/14 10:29:34;;;;;;;1999.90;999.90;;;19.40;99.90;;;;;;4972529;28;20402;-81
2022/10/14 10:32:15;;;;;;;1999.90;999.90;;;19.50;99.90;;;;;;4971306;28;20053;-86
2022/10/14 10:35:09;;;;;;;1999.90;999.90;;;19.50;99.90;;;;;;4971955;28;20023;-74
2022/10/14 10:37:51;;;;;;;1999.90;999.90;;;19.50;99.90;;;;;;4963716;28;20097;-85
2022/10/14 10:40:30;;;;;;;1999.90;999.90;;;19.40;99.90;;;;;;4968988;28;20097;-80
2022/10/14 10:43:35;;;;;;;1999.90;999.90;;;19.20;99.90;;;;;;4960246;28;20055;-85
2022/10/14 10:46:15;;;;;;;1999.90;999.90;;;19.20;99.90;;;;;;4947832;28;20529;-83
2022/10/14 10:49:13;;;;;;;1999.90;999.90;;;19.10;99.90;;;;;;4971859;28;20533;-77
2022/10/14 10:51:53;;;;;;;1999.90;999.90;;;19.10;99.90;;;;;;4944009;28;20627;-79
2022/10/14 10:54:34;;;;;;;1999.90;999.90;;;19.20;99.90;;;;;;4971452;28;20037;-84
2022/10/14 10:57:08;;;;;;;1999.90;999.90;;;19.30;99.90;;;;;;4971761;28;20031;-84
2022/10/14 10:59:48;;;;;;;1999.90;999.90;;;19.30;99.90;;;;;;4967516;28;20047;-83
2022/10/14 11:02:44;;;;;;;1999.90;999.90;;;19.50;99.90;;;;;;4949907;28;20055;-74
2022/10/14 11:05:46;;;;;;;1999.90;999.90;;;19.40;99.90;;;;;;4949323;28;20534;-79
2022/10/14 11:12:04;;;;;;;1999.90;999.90;;;19.30;99.90;;;;;;4955395;28;20111;-78
2022/10/14 11:14:55;;;;;;;1999.90;999.90;;;19.20;99.90;;;;;;4946977;28;20065;-84
2022/10/14 11:17:27;;;;;;;1999.90;999.90;;;19.20;99.90;;;;;;4949695;29;20031;-74
2022/10/14 11:20:04;;;;;;;1999.90;999.90;;;19.20;99.90;;;;;;4950594;28;20032;-85
2022/10/14 11:22:54;;;;;;;1999.90;999.90;;;19.40;99.90;;;;;;4950264;28;20027;-83
2022/10/14 11:25:22;;;;;;;1999.90;999.90;;;19.50;99.90;;;;;;4951070;28;20428;-78
2022/10/14 11:27:58;;;;;;;1999.90;999.90;;;19.50;99.90;;;;;;4950431;28;20496;-77
2022/10/14 11:30:56;;;;;;;1999.90;999.90;;;19.60;99.90;;;;;;4948107;28;20047;-78
2022/10/14 11:33:32;;;;;;;1999.90;999.90;;;19.40;99.90;;;;;;4949055;28;20058;-76
2022/10/14 11:36:19;;;;;;;1999.90;999.90;;;19.30;99.90;;;;;;4951180;28;20038;-84
2022/10/14 11:39:03;;;;;;;1999.90;999.90;;;19.40;99.90;;;;;;4943127;29;20034;-87
2022/10/14 11:41:54;;;;;;;1999.90;999.90;;;19.20;99.90;;;;;;4949099;29;20032;-78
2022/10/14 11:44:39;;;;;;;1999.90;999.90;;;19.10;99.90;;;;;;4951707;28;20066;-83
2022/10/14 11:47:20;;;;;;;1999.90;999.90;;;19.20;99.90;;;;;;4954604;28;20039;-84
2022/10/14 11:49:54;;;;;;;1999.90;999.90;;;19.20;99.90;;;;;;4951626;28;20386;-82
2022/10/14 11:52:27;;;;;;;1999.90;999.90;;;19.40;99.90;;;;;;4951224;28;20031;-78
2022/10/14 11:55:11;;;;;;;1999.90;999.90;;;19.30;99.90;;;;;;4950848;28;20031;-78
2022/10/14 11:57:44;;;;;;;1999.90;999.90;;;19.20;99.90;;;;;;4952988;28;20041;-82
2022/10/14 12:00:30;;;;;;;1999.90;999.90;;;19.20;99.90;;;;;;4954212;28;20028;-77
2022/10/14 12:03:49;;;;;;;1999.90;999.90;;;19.10;99.90;;;;;;4966552;28;20046;-84
2022/10/14 12:06:20;;;;;;;1999.90;999.90;;;19.20;99.90;;;;;;4884067;29;20405;-76
2022/10/14 12:09:22;;;;;;;1999.90;999.90;;;19.20;99.90;;;;;;4890441;29;20059;-82
2022/10/14 12:11:56;;;;;;;1999.90;999.90;;;19.30;99.90;;;;;;4895177;29;20044;-75
2022/10/14 12:14:31;;;;;;;1999.90;999.90;;;19.30;99.90;;;;;;4879708;29;20119;-83
2022/10/14 12:16:58;;;;;;;1999.90;999.90;;;19.30;99.90;;;;;;4896571;29;20654;-76
2022/10/14 12:19:26;;;;;;;1999.90;999.90;;;19.30;99.90;;;;;;4908450;29;20047;-78